sensor_id;sensor_type;location;lat;lon;timestamp;temperature;humidity
61386;DHT22;47256;18.904;-99.054;2023-02-28T00:01:24;31.20;43.70
61386;DHT22;47256;18.904;-99.054;2023-02-28T00:03:52;31.20;43.70
61386;DHT22;47256;18.904;-99.054;2023-02-28T00:06:20;31.20;43.20
61386;DHT22;47256;18.904;-99.054;2023-02-28T00:08:47;31.20;43.70
61386;DHT22;47256;18.904;-99.054;2023-02-28T00:11:15;31.10;45.30
61386;DHT22;47256;18.904;-99.054;2023-02-28T00:13:45;31.00;44.80
61386;DHT22;47256;18.904;-99.054;2023-02-28T00:16:20;31.00;44.10
61386;DHT22;47256;18.904;-99.054;2023-02-28T00:18:48;31.00;44.60
61386;DHT22;47256;18.904;-99.054;2023-02-28T00:21:17;30.90;44.30
61386;DHT22;47256;18.904;-99.054;2023-02-28T00:23:45;30.90;44.10
61386;DHT22;47256;18.904;-99.054;2023-02-28T00:26:12;30.80;44.30
61386;DHT22;47256;18.904;-99.054;2023-02-28T00:28:43;30.80;44.60
61386;DHT22;47256;18.904;-99.054;2023-02-28T00:31:11;30.70;45.80
61386;DHT22;47256;18.904;-99.054;2023-02-28T00:33:38;30.70;46.10
61386;DHT22;47256;18.904;-99.054;2023-02-28T00:36:08;30.70;46.90
61386;DHT22;47256;18.904;-99.054;2023-02-28T00:38:39;30.60;47.20
61386;DHT22;47256;18.904;-99.054;2023-02-28T00:41:07;30.50;48.00
61386;DHT22;47256;18.904;-99.054;2023-02-28T00:43:37;30.50;49.00
61386;DHT22;47256;18.904;-99.054;2023-02-28T00:46:04;30.40;51.40
61386;DHT22;47256;18.904;-99.054;2023-02-28T00:48:33;30.20;50.70
61386;DHT22;47256;18.904;-99.054;2023-02-28T00:51:01;30.10;49.90
61386;DHT22;47256;18.904;-99.054;2023-02-28T00:53:29;30.10;52.10
61386;DHT22;47256;18.904;-99.054;2023-02-28T00:55:57;30.00;52.60
61386;DHT22;47256;18.904;-99.054;2023-02-28T00:58:26;29.90;51.50
61386;DHT22;47256;18.904;-99.054;2023-02-28T01:00:54;29.80;52.80
61386;DHT22;47256;18.904;-99.054;2023-02-28T01:03:22;29.70;51.50
61386;DHT22;47256;18.904;-99.054;2023-02-28T01:05:49;29.70;51.40
61386;DHT22;47256;18.904;-99.054;2023-02-28T01:08:17;29.60;54.00
61386;DHT22;47256;18.904;-99.054;2023-02-28T01:10:44;29.40;53.90
61386;DHT22;47256;18.904;-99.054;2023-02-28T01:13:12;29.30;53.60
61386;DHT22;47256;18.904;-99.054;2023-02-28T01:15:43;29.30;53.40
61386;DHT22;47256;18.904;-99.054;2023-02-28T01:18:13;29.20;52.90
61386;DHT22;47256;18.904;-99.054;2023-02-28T01:20:41;29.20;53.60
61386;DHT22;47256;18.904;-99.054;2023-02-28T01:23:09;29.20;52.20
61386;DHT22;47256;18.904;-99.054;2023-02-28T01:25:37;29.10;52.00
61386;DHT22;47256;18.904;-99.054;2023-02-28T01:28:05;29.10;50.80
61386;DHT22;47256;18.904;-99.054;2023-02-28T01:30:33;29.10;53.90
61386;DHT22;47256;18.904;-99.054;2023-02-28T01:33:00;28.90;53.00
61386;DHT22;47256;18.904;-99.054;2023-02-28T01:35:28;28.80;54.50
61386;DHT22;47256;18.904;-99.054;2023-02-28T01:37:55;28.80;52.20
61386;DHT22;47256;18.904;-99.054;2023-02-28T01:40:22;28.80;52.10
61386;DHT22;47256;18.904;-99.054;2023-02-28T01:42:50;28.70;52.20
61386;DHT22;47256;18.904;-99.054;2023-02-28T01:47:49;28.50;53.30
61386;DHT22;47256;18.904;-99.054;2023-02-28T01:50:22;28.50;53.30
61386;DHT22;47256;18.904;-99.054;2023-02-28T01:52:52;28.50;52.80
61386;DHT22;47256;18.904;-99.054;2023-02-28T01:55:25;28.50;53.80
61386;DHT22;47256;18.904;-99.054;2023-02-28T01:58:00;28.40;54.60
61386;DHT22;47256;18.904;-99.054;2023-02-28T02:00:30;28.30;53.40
61386;DHT22;47256;18.904;-99.054;2023-02-28T02:03:01;28.30;53.00
61386;DHT22;47256;18.904;-99.054;2023-02-28T02:05:32;28.30;54.60
61386;DHT22;47256;18.904;-99.054;2023-02-28T02:08:04;28.30;52.70
61386;DHT22;47256;18.904;-99.054;2023-02-28T02:13:24;28.20;54.50
61386;DHT22;47256;18.904;-99.054;2023-02-28T02:18:58;28.00;55.80
61386;DHT22;47256;18.904;-99.054;2023-02-28T02:40:20;27.90;55.30
61386;DHT22;47256;18.904;-99.054;2023-02-28T02:42:59;27.90;55.30
61386;DHT22;47256;18.904;-99.054;2023-02-28T02:45:48;27.80;55.30
61386;DHT22;47256;18.904;-99.054;2023-02-28T02:48:19;27.80;55.50
61386;DHT22;47256;18.904;-99.054;2023-02-28T02:50:53;27.80;54.80
61386;DHT22;47256;18.904;-99.054;2023-02-28T02:53:25;27.80;55.30
61386;DHT22;47256;18.904;-99.054;2023-02-28T02:55:54;27.70;54.80
61386;DHT22;47256;18.904;-99.054;2023-02-28T02:58:31;27.80;54.80
61386;DHT22;47256;18.904;-99.054;2023-02-28T03:01:01;27.80;54.70
61386;DHT22;47256;18.904;-99.054;2023-02-28T03:03:31;27.80;54.90
61386;DHT22;47256;18.904;-99.054;2023-02-28T03:06:01;27.80;54.60
61386;DHT22;47256;18.904;-99.054;2023-02-28T03:08:33;27.80;56.10
61386;DHT22;47256;18.904;-99.054;2023-02-28T03:11:04;27.80;54.80
61386;DHT22;47256;18.904;-99.054;2023-02-28T03:13:54;27.80;56.60
61386;DHT22;47256;18.904;-99.054;2023-02-28T03:16:56;27.80;56.40
61386;DHT22;47256;18.904;-99.054;2023-02-28T03:30:25;27.50;54.20
61386;DHT22;47256;18.904;-99.054;2023-02-28T03:32:56;27.60;55.40
61386;DHT22;47256;18.904;-99.054;2023-02-28T03:35:28;27.60;55.10
61386;DHT22;47256;18.904;-99.054;2023-02-28T03:38:16;27.60;55.40
61386;DHT22;47256;18.904;-99.054;2023-02-28T03:40:55;27.50;55.40
61386;DHT22;47256;18.904;-99.054;2023-02-28T03:43:30;27.40;55.90
61386;DHT22;47256;18.904;-99.054;2023-02-28T03:46:02;27.30;57.40
61386;DHT22;47256;18.904;-99.054;2023-02-28T03:51:09;27.30;57.60
61386;DHT22;47256;18.904;-99.054;2023-02-28T03:53:48;27.20;57.70
61386;DHT22;47256;18.904;-99.054;2023-02-28T03:56:30;27.10;56.90
61386;DHT22;47256;18.904;-99.054;2023-02-28T04:02:11;27.10;56.00
61386;DHT22;47256;18.904;-99.054;2023-02-28T04:04:39;27.10;55.50
61386;DHT22;47256;18.904;-99.054;2023-02-28T04:07:15;27.10;55.50
61386;DHT22;47256;18.904;-99.054;2023-02-28T04:09:43;27.10;57.70
61386;DHT22;47256;18.904;-99.054;2023-02-28T04:12:10;27.00;58.50
61386;DHT22;47256;18.904;-99.054;2023-02-28T04:14:38;27.00;59.20
61386;DHT22;47256;18.904;-99.054;2023-02-28T04:17:05;27.00;59.20
61386;DHT22;47256;18.904;-99.054;2023-02-28T04:19:32;26.90;57.10
61386;DHT22;47256;18.904;-99.054;2023-02-28T04:22:01;26.90;56.60
61386;DHT22;47256;18.904;-99.054;2023-02-28T04:24:28;26.80;58.10
61386;DHT22;47256;18.904;-99.054;2023-02-28T04:26:57;26.80;57.50
61386;DHT22;47256;18.904;-99.054;2023-02-28T04:31:54;26.70;57.50
61386;DHT22;47256;18.904;-99.054;2023-02-28T04:34:22;26.70;57.70
61386;DHT22;47256;18.904;-99.054;2023-02-28T04:36:50;26.80;57.60
61386;DHT22;47256;18.904;-99.054;2023-02-28T04:39:21;26.80;57.20
61386;DHT22;47256;18.904;-99.054;2023-02-28T04:41:48;26.80;57.60
61386;DHT22;47256;18.904;-99.054;2023-02-28T04:44:16;26.70;57.10
61386;DHT22;47256;18.904;-99.054;2023-02-28T04:46:44;26.70;56.80
61386;DHT22;47256;18.904;-99.054;2023-02-28T04:49:12;26.70;56.80
61386;DHT22;47256;18.904;-99.054;2023-02-28T04:51:40;26.60;56.90
61386;DHT22;47256;18.904;-99.054;2023-02-28T04:54:07;26.60;57.30
61386;DHT22;47256;18.904;-99.054;2023-02-28T04:56:34;26.50;57.00
61386;DHT22;47256;18.904;-99.054;2023-02-28T04:59:02;26.50;57.60
61386;DHT22;47256;18.904;-99.054;2023-02-28T05:01:31;26.50;56.80
61386;DHT22;47256;18.904;-99.054;2023-02-28T05:04:01;26.50;57.20
61386;DHT22;47256;18.904;-99.054;2023-02-28T05:06:31;26.50;56.80
61386;DHT22;47256;18.904;-99.054;2023-02-28T05:08:58;26.40;57.70
61386;DHT22;47256;18.904;-99.054;2023-02-28T05:11:32;26.40;57.10
61386;DHT22;47256;18.904;-99.054;2023-02-28T05:14:03;26.40;57.60
61386;DHT22;47256;18.904;-99.054;2023-02-28T05:16:32;26.30;59.80
61386;DHT22;47256;18.904;-99.054;2023-02-28T05:19:00;26.20;58.20
61386;DHT22;47256;18.904;-99.054;2023-02-28T05:21:36;26.10;59.80
61386;DHT22;47256;18.904;-99.054;2023-02-28T05:24:10;26.00;58.30
61386;DHT22;47256;18.904;-99.054;2023-02-28T05:26:42;25.80;58.40
61386;DHT22;47256;18.904;-99.054;2023-02-28T05:29:10;25.60;60.10
61386;DHT22;47256;18.904;-99.054;2023-02-28T05:31:37;25.60;58.30
61386;DHT22;47256;18.904;-99.054;2023-02-28T05:34:05;25.70;58.30
61386;DHT22;47256;18.904;-99.054;2023-02-28T05:36:33;25.80;58.10
61386;DHT22;47256;18.904;-99.054;2023-02-28T05:39:00;25.90;58.60
61386;DHT22;47256;18.904;-99.054;2023-02-28T05:41:28;25.90;58.40
61386;DHT22;47256;18.904;-99.054;2023-02-28T05:43:55;25.90;58.00
61386;DHT22;47256;18.904;-99.054;2023-02-28T05:46:23;25.90;57.90
61386;DHT22;47256;18.904;-99.054;2023-02-28T05:48:51;25.90;58.30
61386;DHT22;47256;18.904;-99.054;2023-02-28T05:51:18;25.80;58.60
61386;DHT22;47256;18.904;-99.054;2023-02-28T05:53:45;25.80;58.60
61386;DHT22;47256;18.904;-99.054;2023-02-28T05:56:14;25.70;58.70
61386;DHT22;47256;18.904;-99.054;2023-02-28T05:58:42;25.70;58.10
61386;DHT22;47256;18.904;-99.054;2023-02-28T06:03:49;25.70;58.50
61386;DHT22;47256;18.904;-99.054;2023-02-28T06:06:16;25.50;59.30
61386;DHT22;47256;18.904;-99.054;2023-02-28T06:08:43;25.30;60.70
61386;DHT22;47256;18.904;-99.054;2023-02-28T06:11:12;25.20;60.70
61386;DHT22;47256;18.904;-99.054;2023-02-28T06:13:40;25.10;61.40
61386;DHT22;47256;18.904;-99.054;2023-02-28T06:16:10;25.00;60.10
61386;DHT22;47256;18.904;-99.054;2023-02-28T06:18:38;25.00;60.20
61386;DHT22;47256;18.904;-99.054;2023-02-28T06:21:06;25.20;60.40
61386;DHT22;47256;18.904;-99.054;2023-02-28T06:23:35;25.30;59.90
61386;DHT22;47256;18.904;-99.054;2023-02-28T06:26:03;25.30;60.60
61386;DHT22;47256;18.904;-99.054;2023-02-28T06:28:31;25.10;59.30
61386;DHT22;47256;18.904;-99.054;2023-02-28T06:30:58;25.00;60.10
61386;DHT22;47256;18.904;-99.054;2023-02-28T06:33:26;25.00;60.00
61386;DHT22;47256;18.904;-99.054;2023-02-28T06:35:53;25.00;60.50
61386;DHT22;47256;18.904;-99.054;2023-02-28T06:38:20;25.00;60.60
61386;DHT22;47256;18.904;-99.054;2023-02-28T06:40:54;24.80;63.10
61386;DHT22;47256;18.904;-99.054;2023-02-28T06:43:23;24.80;62.10
61386;DHT22;47256;18.904;-99.054;2023-02-28T06:45:53;24.80;63.00
61386;DHT22;47256;18.904;-99.054;2023-02-28T06:48:20;24.80;62.90
61386;DHT22;47256;18.904;-99.054;2023-02-28T06:50:48;24.80;62.10
61386;DHT22;47256;18.904;-99.054;2023-02-28T06:53:15;24.80;61.20
61386;DHT22;47256;18.904;-99.054;2023-02-28T06:55:43;24.80;62.00
61386;DHT22;47256;18.904;-99.054;2023-02-28T06:58:10;24.90;62.30
61386;DHT22;47256;18.904;-99.054;2023-02-28T07:00:50;24.90;62.40
61386;DHT22;47256;18.904;-99.054;2023-02-28T07:03:17;24.70;62.60
61386;DHT22;47256;18.904;-99.054;2023-02-28T07:05:45;24.60;63.00
61386;DHT22;47256;18.904;-99.054;2023-02-28T07:08:13;24.60;62.80
61386;DHT22;47256;18.904;-99.054;2023-02-28T07:10:41;24.40;64.20
61386;DHT22;47256;18.904;-99.054;2023-02-28T07:13:09;24.40;64.10
61386;DHT22;47256;18.904;-99.054;2023-02-28T07:15:37;24.30;64.30
61386;DHT22;47256;18.904;-99.054;2023-02-28T07:18:05;24.40;63.90
61386;DHT22;47256;18.904;-99.054;2023-02-28T07:20:33;24.40;63.60
61386;DHT22;47256;18.904;-99.054;2023-02-28T07:23:01;24.50;63.10
61386;DHT22;47256;18.904;-99.054;2023-02-28T07:25:29;24.60;63.40
61386;DHT22;47256;18.904;-99.054;2023-02-28T07:27:56;24.40;65.00
61386;DHT22;47256;18.904;-99.054;2023-02-28T07:30:25;24.40;64.00
61386;DHT22;47256;18.904;-99.054;2023-02-28T07:32:53;24.40;64.00
61386;DHT22;47256;18.904;-99.054;2023-02-28T07:35:23;24.30;63.60
61386;DHT22;47256;18.904;-99.054;2023-02-28T07:37:50;24.30;64.30
61386;DHT22;47256;18.904;-99.054;2023-02-28T07:40:18;24.10;65.80
61386;DHT22;47256;18.904;-99.054;2023-02-28T07:42:45;23.80;66.00
61386;DHT22;47256;18.904;-99.054;2023-02-28T07:45:17;23.70;65.20
61386;DHT22;47256;18.904;-99.054;2023-02-28T07:47:44;23.60;66.40
61386;DHT22;47256;18.904;-99.054;2023-02-28T07:50:14;23.60;62.70
61386;DHT22;47256;18.904;-99.054;2023-02-28T07:52:42;23.60;63.60
61386;DHT22;47256;18.904;-99.054;2023-02-28T07:55:10;23.70;63.90
61386;DHT22;47256;18.904;-99.054;2023-02-28T07:57:37;23.70;63.20
61386;DHT22;47256;18.904;-99.054;2023-02-28T08:00:06;23.60;63.50
61386;DHT22;47256;18.904;-99.054;2023-02-28T08:02:40;23.70;65.00
61386;DHT22;47256;18.904;-99.054;2023-02-28T08:05:08;23.70;64.40
61386;DHT22;47256;18.904;-99.054;2023-02-28T08:07:35;23.60;64.00
61386;DHT22;47256;18.904;-99.054;2023-02-28T08:10:03;23.40;63.90
61386;DHT22;47256;18.904;-99.054;2023-02-28T08:12:32;23.40;64.80
61386;DHT22;47256;18.904;-99.054;2023-02-28T08:14:59;23.30;63.70
61386;DHT22;47256;18.904;-99.054;2023-02-28T08:17:26;23.40;63.90
61386;DHT22;47256;18.904;-99.054;2023-02-28T08:19:54;23.50;64.00
61386;DHT22;47256;18.904;-99.054;2023-02-28T08:22:22;23.50;63.50
61386;DHT22;47256;18.904;-99.054;2023-02-28T08:24:49;23.60;63.80
61386;DHT22;47256;18.904;-99.054;2023-02-28T08:27:17;23.50;62.80
61386;DHT22;47256;18.904;-99.054;2023-02-28T08:29:44;23.60;62.90
61386;DHT22;47256;18.904;-99.054;2023-02-28T08:32:11;23.50;62.40
61386;DHT22;47256;18.904;-99.054;2023-02-28T08:34:40;23.40;62.50
61386;DHT22;47256;18.904;-99.054;2023-02-28T08:37:07;23.40;64.50
61386;DHT22;47256;18.904;-99.054;2023-02-28T08:39:35;23.40;63.40
61386;DHT22;47256;18.904;-99.054;2023-02-28T08:42:04;23.30;63.40
61386;DHT22;47256;18.904;-99.054;2023-02-28T08:44:31;23.10;62.90
61386;DHT22;47256;18.904;-99.054;2023-02-28T08:46:58;23.10;62.80
61386;DHT22;47256;18.904;-99.054;2023-02-28T08:49:26;23.30;63.30
61386;DHT22;47256;18.904;-99.054;2023-02-28T08:51:53;23.10;62.70
61386;DHT22;47256;18.904;-99.054;2023-02-28T08:54:22;23.00;62.90
61386;DHT22;47256;18.904;-99.054;2023-02-28T08:56:49;23.10;63.00
61386;DHT22;47256;18.904;-99.054;2023-02-28T08:59:16;23.00;63.50
61386;DHT22;47256;18.904;-99.054;2023-02-28T09:01:44;22.80;63.90
61386;DHT22;47256;18.904;-99.054;2023-02-28T09:04:11;22.90;63.40
61386;DHT22;47256;18.904;-99.054;2023-02-28T09:06:39;22.90;64.70
61386;DHT22;47256;18.904;-99.054;2023-02-28T09:09:06;22.80;64.50
61386;DHT22;47256;18.904;-99.054;2023-02-28T09:11:35;22.90;63.30
61386;DHT22;47256;18.904;-99.054;2023-02-28T09:14:03;22.90;63.80
61386;DHT22;47256;18.904;-99.054;2023-02-28T09:16:32;22.90;64.50
61386;DHT22;47256;18.904;-99.054;2023-02-28T09:18:59;22.90;64.20
61386;DHT22;47256;18.904;-99.054;2023-02-28T09:21:27;22.90;62.80
61386;DHT22;47256;18.904;-99.054;2023-02-28T09:23:55;23.00;62.60
61386;DHT22;47256;18.904;-99.054;2023-02-28T09:26:25;23.00;62.40
61386;DHT22;47256;18.904;-99.054;2023-02-28T09:28:54;22.90;63.30
61386;DHT22;47256;18.904;-99.054;2023-02-28T09:31:26;22.80;64.90
61386;DHT22;47256;18.904;-99.054;2023-02-28T09:33:57;22.80;65.00
61386;DHT22;47256;18.904;-99.054;2023-02-28T09:36:26;22.60;65.30
61386;DHT22;47256;18.904;-99.054;2023-02-28T09:38:55;22.50;66.00
61386;DHT22;47256;18.904;-99.054;2023-02-28T09:41:26;22.50;65.00
61386;DHT22;47256;18.904;-99.054;2023-02-28T09:44:01;22.50;64.40
61386;DHT22;47256;18.904;-99.054;2023-02-28T09:46:40;22.50;64.20
61386;DHT22;47256;18.904;-99.054;2023-02-28T09:49:19;22.60;64.80
61386;DHT22;47256;18.904;-99.054;2023-02-28T09:51:58;22.40;65.90
61386;DHT22;47256;18.904;-99.054;2023-02-28T09:54:29;22.40;66.40
61386;DHT22;47256;18.904;-99.054;2023-02-28T09:57:26;22.40;66.90
61386;DHT22;47256;18.904;-99.054;2023-02-28T10:00:39;22.30;67.60
61386;DHT22;47256;18.904;-99.054;2023-02-28T10:03:25;22.30;67.90
61386;DHT22;47256;18.904;-99.054;2023-02-28T10:06:18;22.30;67.70
61386;DHT22;47256;18.904;-99.054;2023-02-28T10:09:35;22.40;67.50
61386;DHT22;47256;18.904;-99.054;2023-02-28T10:11:44;22.40;68.20
61386;DHT22;47256;18.904;-99.054;2023-02-28T10:14:16;22.30;67.80
61386;DHT22;47256;18.904;-99.054;2023-02-28T10:17:11;22.20;69.00
61386;DHT22;47256;18.904;-99.054;2023-02-28T10:20:02;22.00;69.90
61386;DHT22;47256;18.904;-99.054;2023-02-28T10:25:39;21.70;71.90
61386;DHT22;47256;18.904;-99.054;2023-02-28T10:28:16;21.80;70.70
61386;DHT22;47256;18.904;-99.054;2023-02-28T10:30:52;21.80;70.40
61386;DHT22;47256;18.904;-99.054;2023-02-28T10:33:38;21.80;70.20
61386;DHT22;47256;18.904;-99.054;2023-02-28T10:36:08;21.80;70.50
61386;DHT22;47256;18.904;-99.054;2023-02-28T10:38:38;21.80;70.40
61386;DHT22;47256;18.904;-99.054;2023-02-28T10:41:10;21.90;70.50
61386;DHT22;47256;18.904;-99.054;2023-02-28T10:43:39;21.90;70.30
61386;DHT22;47256;18.904;-99.054;2023-02-28T10:48:41;21.80;71.30
61386;DHT22;47256;18.904;-99.054;2023-02-28T10:51:16;21.80;71.00
61386;DHT22;47256;18.904;-99.054;2023-02-28T10:53:48;21.80;71.10
61386;DHT22;47256;18.904;-99.054;2023-02-28T10:56:22;21.70;71.40
61386;DHT22;47256;18.904;-99.054;2023-02-28T10:59:03;21.70;71.30
61386;DHT22;47256;18.904;-99.054;2023-02-28T11:01:44;21.60;71.90
61386;DHT22;47256;18.904;-99.054;2023-02-28T11:04:32;21.60;71.50
61386;DHT22;47256;18.904;-99.054;2023-02-28T11:07:25;21.60;71.90
61386;DHT22;47256;18.904;-99.054;2023-02-28T11:09:56;21.60;70.00
61386;DHT22;47256;18.904;-99.054;2023-02-28T11:18:17;21.50;72.20
61386;DHT22;47256;18.904;-99.054;2023-02-28T11:20:51;21.50;72.10
61386;DHT22;47256;18.904;-99.054;2023-02-28T11:23:21;21.40;72.30
61386;DHT22;47256;18.904;-99.054;2023-02-28T11:25:51;21.40;72.90
61386;DHT22;47256;18.904;-99.054;2023-02-28T11:28:29;21.20;68.40
61386;DHT22;47256;18.904;-99.054;2023-02-28T11:33:47;21.00;72.00
61386;DHT22;47256;18.904;-99.054;2023-02-28T11:39:10;21.00;70.20
61386;DHT22;47256;18.904;-99.054;2023-02-28T11:45:09;20.90;71.70
61386;DHT22;47256;18.904;-99.054;2023-02-28T11:47:56;21.00;71.60
61386;DHT22;47256;18.904;-99.054;2023-02-28T11:50:33;21.00;70.70
61386;DHT22;47256;18.904;-99.054;2023-02-28T11:53:10;21.10;71.50
61386;DHT22;47256;18.904;-99.054;2023-02-28T11:55:58;21.00;71.50
61386;DHT22;47256;18.904;-99.054;2023-02-28T12:01:20;21.10;71.20
61386;DHT22;47256;18.904;-99.054;2023-02-28T12:10:05;21.20;71.40
61386;DHT22;47256;18.904;-99.054;2023-02-28T12:15:47;20.90;71.90
61386;DHT22;47256;18.904;-99.054;2023-02-28T12:21:25;20.90;71.60
61386;DHT22;47256;18.904;-99.054;2023-02-28T12:26:42;20.70;73.10
61386;DHT22;47256;18.904;-99.054;2023-02-28T12:31:52;20.70;73.20
61386;DHT22;47256;18.904;-99.054;2023-02-28T12:34:27;20.60;73.40
61386;DHT22;47256;18.904;-99.054;2023-02-28T12:36:56;20.50;73.70
61386;DHT22;47256;18.904;-99.054;2023-02-28T12:39:44;20.60;73.40
61386;DHT22;47256;18.904;-99.054;2023-02-28T12:43:03;20.60;73.20
61386;DHT22;47256;18.904;-99.054;2023-02-28T12:45:31;20.70;73.00
61386;DHT22;47256;18.904;-99.054;2023-02-28T12:48:05;20.60;73.30
61386;DHT22;47256;18.904;-99.054;2023-02-28T12:50:35;20.70;73.60
61386;DHT22;47256;18.904;-99.054;2023-02-28T12:56:16;20.60;74.10
61386;DHT22;47256;18.904;-99.054;2023-02-28T12:58:56;20.60;74.00
61386;DHT22;47256;18.904;-99.054;2023-02-28T13:09:18;20.40;75.40
61386;DHT22;47256;18.904;-99.054;2023-02-28T13:11:51;20.40;75.40
61386;DHT22;47256;18.904;-99.054;2023-02-28T13:19:26;20.40;74.70
61386;DHT22;47256;18.904;-99.054;2023-02-28T13:21:56;20.40;73.80
61386;DHT22;47256;18.904;-99.054;2023-02-28T13:24:51;20.50;74.10
61386;DHT22;47256;18.904;-99.054;2023-02-28T13:27:55;20.60;74.30
61386;DHT22;47256;18.904;-99.054;2023-02-28T13:33:24;20.60;74.80
61386;DHT22;47256;18.904;-99.054;2023-02-28T13:45:19;20.70;71.30
61386;DHT22;47256;18.904;-99.054;2023-02-28T13:47:56;20.60;70.70
61386;DHT22;47256;18.904;-99.054;2023-02-28T13:50:30;20.60;70.20
61386;DHT22;47256;18.904;-99.054;2023-02-28T14:01:28;20.90;73.00
61386;DHT22;47256;18.904;-99.054;2023-02-28T14:06:34;21.20;72.20
61386;DHT22;47256;18.904;-99.054;2023-02-28T14:11:37;21.50;72.00
61386;DHT22;47256;18.904;-99.054;2023-02-28T14:14:06;21.70;71.50
61386;DHT22;47256;18.904;-99.054;2023-02-28T14:16:40;21.80;70.50
61386;DHT22;47256;18.904;-99.054;2023-02-28T14:19:36;21.90;70.30
61386;DHT22;47256;18.904;-99.054;2023-02-28T14:25:44;22.20;73.10
61386;DHT22;47256;18.904;-99.054;2023-02-28T14:30:43;22.40;72.30
61386;DHT22;47256;18.904;-99.054;2023-02-28T14:36:00;22.70;72.20
61386;DHT22;47256;18.904;-99.054;2023-02-28T14:38:41;22.80;72.30
61386;DHT22;47256;18.904;-99.054;2023-02-28T14:41:28;22.80;73.00
61386;DHT22;47256;18.904;-99.054;2023-02-28T14:43:59;22.90;73.70
61386;DHT22;47256;18.904;-99.054;2023-02-28T14:46:38;23.10;72.60
61386;DHT22;47256;18.904;-99.054;2023-02-28T14:52:01;23.30;71.70
61386;DHT22;47256;18.904;-99.054;2023-02-28T14:54:29;23.40;65.30
61386;DHT22;47256;18.904;-99.054;2023-02-28T14:56:57;23.50;67.80
61386;DHT22;47256;18.904;-99.054;2023-02-28T14:59:35;23.70;68.80
61386;DHT22;47256;18.904;-99.054;2023-02-28T15:02:23;23.90;66.60
61386;DHT22;47256;18.904;-99.054;2023-02-28T15:07:39;24.20;66.20
61386;DHT22;47256;18.904;-99.054;2023-02-28T15:10:25;24.40;65.60
61386;DHT22;47256;18.904;-99.054;2023-02-28T15:13:01;24.50;64.30
61386;DHT22;47256;18.904;-99.054;2023-02-28T15:15:45;24.70;64.20
61386;DHT22;47256;18.904;-99.054;2023-02-28T15:21:18;25.10;64.40
61386;DHT22;47256;18.904;-99.054;2023-02-28T15:26:41;25.40;67.20
61386;DHT22;47256;18.904;-99.054;2023-02-28T15:29:15;25.60;66.90
61386;DHT22;47256;18.904;-99.054;2023-02-28T15:31:50;25.60;65.90
61386;DHT22;47256;18.904;-99.054;2023-02-28T15:34:36;25.80;66.60
61386;DHT22;47256;18.904;-99.054;2023-02-28T15:37:46;25.90;67.90
61386;DHT22;47256;18.904;-99.054;2023-02-28T15:43:13;26.20;66.20
61386;DHT22;47256;18.904;-99.054;2023-02-28T15:45:46;26.30;66.60
61386;DHT22;47256;18.904;-99.054;2023-02-28T15:48:27;26.50;67.70
61386;DHT22;47256;18.904;-99.054;2023-02-28T15:51:09;26.60;66.50
61386;DHT22;47256;18.904;-99.054;2023-02-28T15:53:54;26.80;66.60
61386;DHT22;47256;18.904;-99.054;2023-02-28T15:56:33;26.90;64.30
61386;DHT22;47256;18.904;-99.054;2023-02-28T15:59:06;27.00;62.90
61386;DHT22;47256;18.904;-99.054;2023-02-28T16:01:35;27.10;63.60
61386;DHT22;47256;18.904;-99.054;2023-02-28T16:06:46;27.50;62.60
61386;DHT22;47256;18.904;-99.054;2023-02-28T16:09:16;27.60;62.30
61386;DHT22;47256;18.904;-99.054;2023-02-28T16:11:48;27.60;57.90
61386;DHT22;47256;18.904;-99.054;2023-02-28T16:14:22;27.70;59.00
61386;DHT22;47256;18.904;-99.054;2023-02-28T16:16:53;27.90;59.10
61386;DHT22;47256;18.904;-99.054;2023-02-28T16:19:23;28.00;58.70
61386;DHT22;47256;18.904;-99.054;2023-02-28T16:21:50;28.20;60.10
61386;DHT22;47256;18.904;-99.054;2023-02-28T16:24:17;28.30;58.20
61386;DHT22;47256;18.904;-99.054;2023-02-28T16:26:48;28.40;58.70
61386;DHT22;47256;18.904;-99.054;2023-02-28T16:29:44;28.60;60.30
61386;DHT22;47256;18.904;-99.054;2023-02-28T16:32:14;28.80;58.10
61386;DHT22;47256;18.904;-99.054;2023-02-28T16:34:43;28.90;57.70
61386;DHT22;47256;18.904;-99.054;2023-02-28T16:37:15;29.00;59.10
61386;DHT22;47256;18.904;-99.054;2023-02-28T16:39:44;29.20;59.70
61386;DHT22;47256;18.904;-99.054;2023-02-28T16:42:24;29.30;58.20
61386;DHT22;47256;18.904;-99.054;2023-02-28T16:44:53;29.50;58.50
61386;DHT22;47256;18.904;-99.054;2023-02-28T16:47:21;29.60;55.80
61386;DHT22;47256;18.904;-99.054;2023-02-28T16:49:49;29.70;56.90
61386;DHT22;47256;18.904;-99.054;2023-02-28T16:52:16;30.00;57.10
61386;DHT22;47256;18.904;-99.054;2023-02-28T16:54:44;30.10;57.40
61386;DHT22;47256;18.904;-99.054;2023-02-28T16:57:21;30.20;55.40
61386;DHT22;47256;18.904;-99.054;2023-02-28T16:59:50;30.50;57.00
61386;DHT22;47256;18.904;-99.054;2023-02-28T17:02:19;30.60;55.20
61386;DHT22;47256;18.904;-99.054;2023-02-28T17:04:46;30.70;54.80
61386;DHT22;47256;18.904;-99.054;2023-02-28T17:07:15;30.80;56.40
61386;DHT22;47256;18.904;-99.054;2023-02-28T17:09:44;30.90;55.50
61386;DHT22;47256;18.904;-99.054;2023-02-28T17:12:11;31.10;55.90
61386;DHT22;47256;18.904;-99.054;2023-02-28T17:14:39;31.20;53.90
61386;DHT22;47256;18.904;-99.054;2023-02-28T17:17:09;31.20;52.60
61386;DHT22;47256;18.904;-99.054;2023-02-28T17:19:37;31.30;54.00
61386;DHT22;47256;18.904;-99.054;2023-02-28T17:22:08;31.40;53.30
61386;DHT22;47256;18.904;-99.054;2023-02-28T17:24:36;31.60;53.70
61386;DHT22;47256;18.904;-99.054;2023-02-28T17:27:05;31.80;54.00
61386;DHT22;47256;18.904;-99.054;2023-02-28T17:29:34;32.00;52.10
61386;DHT22;47256;18.904;-99.054;2023-02-28T17:32:02;31.90;53.00
61386;DHT22;47256;18.904;-99.054;2023-02-28T17:34:30;32.00;53.90
61386;DHT22;47256;18.904;-99.054;2023-02-28T17:36:57;32.20;53.70
61386;DHT22;47256;18.904;-99.054;2023-02-28T17:39:24;32.30;54.80
61386;DHT22;47256;18.904;-99.054;2023-02-28T17:41:52;32.30;51.00
61386;DHT22;47256;18.904;-99.054;2023-02-28T17:44:21;32.40;51.10
61386;DHT22;47256;18.904;-99.054;2023-02-28T17:46:49;32.40;50.70
61386;DHT22;47256;18.904;-99.054;2023-02-28T17:49:19;32.50;51.10
61386;DHT22;47256;18.904;-99.054;2023-02-28T17:51:47;32.60;51.70
61386;DHT22;47256;18.904;-99.054;2023-02-28T17:54:15;32.60;52.60
61386;DHT22;47256;18.904;-99.054;2023-02-28T17:56:42;32.70;52.40
61386;DHT22;47256;18.904;-99.054;2023-02-28T17:59:10;32.80;51.60
61386;DHT22;47256;18.904;-99.054;2023-02-28T18:01:38;32.70;47.70
61386;DHT22;47256;18.904;-99.054;2023-02-28T18:04:06;32.60;48.60
61386;DHT22;47256;18.904;-99.054;2023-02-28T18:06:41;32.50;50.00
61386;DHT22;47256;18.904;-99.054;2023-02-28T18:09:22;32.70;49.70